sensor_id;sensor_type;location;lat;lon;timestamp;P1;durP1;ratioP1;P2;durP2;ratioP2
17714;SDS011;8977;50.902;4.314;2023-02-21T00:01:51;18.33;;;14.63;;
17714;SDS011;8977;50.902;4.314;2023-02-21T00:04:35;18.70;;;14.97;;
17714;SDS011;8977;50.902;4.314;2023-02-21T00:07:21;17.70;;;14.70;;
17714;SDS011;8977;50.902;4.314;2023-02-21T00:10:10;17.23;;;13.23;;
17714;SDS011;8977;50.902;4.314;2023-02-21T00:12:55;17.83;;;13.77;;
17714;SDS011;8977;50.902;4.314;2023-02-21T00:15:40;16.00;;;12.77;;
17714;SDS011;8977;50.902;4.314;2023-02-21T00:18:24;18.60;;;13.70;;
17714;SDS011;8977;50.902;4.314;2023-02-21T00:21:09;16.40;;;12.67;;
17714;SDS011;8977;50.902;4.314;2023-02-21T00:23:55;17.60;;;13.03;;
17714;SDS011;8977;50.902;4.314;2023-02-21T00:26:40;18.53;;;14.20;;
17714;SDS011;8977;50.902;4.314;2023-02-21T00:29:24;21.07;;;15.17;;
17714;SDS011;8977;50.902;4.314;2023-02-21T00:32:12;21.77;;;15.60;;
17714;SDS011;8977;50.902;4.314;2023-02-21T00:34:57;21.30;;;15.00;;
17714;SDS011;8977;50.902;4.314;2023-02-21T00:37:41;20.53;;;15.77;;
17714;SDS011;8977;50.902;4.314;2023-02-21T00:40:27;22.13;;;15.67;;
17714;SDS011;8977;50.902;4.314;2023-02-21T00:43:12;19.73;;;15.33;;
17714;SDS011;8977;50.902;4.314;2023-02-21T00:45:56;20.57;;;15.13;;
17714;SDS011;8977;50.902;4.314;2023-02-21T00:48:40;18.53;;;14.27;;
17714;SDS011;8977;50.902;4.314;2023-02-21T00:51:25;17.93;;;13.80;;
17714;SDS011;8977;50.902;4.314;2023-02-21T00:54:10;20.13;;;14.97;;
17714;SDS011;8977;50.902;4.314;2023-02-21T00:56:56;19.77;;;15.37;;
17714;SDS011;8977;50.902;4.314;2023-02-21T00:59:40;20.83;;;16.23;;
17714;SDS011;8977;50.902;4.314;2023-02-21T01:02:28;19.87;;;14.20;;
17714;SDS011;8977;50.902;4.314;2023-02-21T01:05:12;17.83;;;13.13;;
17714;SDS011;8977;50.902;4.314;2023-02-21T01:07:57;15.37;;;12.17;;
17714;SDS011;8977;50.902;4.314;2023-02-21T01:10:41;14.83;;;11.53;;
17714;SDS011;8977;50.902;4.314;2023-02-21T01:13:27;16.37;;;11.90;;
17714;SDS011;8977;50.902;4.314;2023-02-21T01:16:11;17.17;;;13.13;;
17714;SDS011;8977;50.902;4.314;2023-02-21T01:18:55;16.73;;;12.17;;
17714;SDS011;8977;50.902;4.314;2023-02-21T01:21:40;15.27;;;12.10;;
17714;SDS011;8977;50.902;4.314;2023-02-21T01:24:25;15.10;;;12.23;;
17714;SDS011;8977;50.902;4.314;2023-02-21T01:27:11;17.17;;;12.23;;
17714;SDS011;8977;50.902;4.314;2023-02-21T01:29:57;15.40;;;12.27;;
17714;SDS011;8977;50.902;4.314;2023-02-21T01:32:41;14.50;;;11.50;;
17714;SDS011;8977;50.902;4.314;2023-02-21T01:35:27;16.83;;;12.00;;
17714;SDS011;8977;50.902;4.314;2023-02-21T01:38:11;16.17;;;12.00;;
17714;SDS011;8977;50.902;4.314;2023-02-21T01:40:56;14.43;;;11.80;;
17714;SDS011;8977;50.902;4.314;2023-02-21T01:43:54;15.80;;;12.20;;
17714;SDS011;8977;50.902;4.314;2023-02-21T01:46:45;17.17;;;12.00;;
17714;SDS011;8977;50.902;4.314;2023-02-21T01:49:32;13.60;;;10.87;;
17714;SDS011;8977;50.902;4.314;2023-02-21T01:52:18;17.10;;;12.73;;
17714;SDS011;8977;50.902;4.314;2023-02-21T01:55:03;15.73;;;12.73;;
17714;SDS011;8977;50.902;4.314;2023-02-21T01:57:51;13.33;;;10.60;;
17714;SDS011;8977;50.902;4.314;2023-02-21T02:00:37;15.40;;;13.00;;
17714;SDS011;8977;50.902;4.314;2023-02-21T02:03:25;15.07;;;11.03;;
17714;SDS011;8977;50.902;4.314;2023-02-21T02:06:11;13.13;;;11.00;;
17714;SDS011;8977;50.902;4.314;2023-02-21T02:08:57;14.80;;;10.70;;
17714;SDS011;8977;50.902;4.314;2023-02-21T02:11:56;13.67;;;10.93;;
17714;SDS011;8977;50.902;4.314;2023-02-21T02:17:59;14.57;;;11.00;;
17714;SDS011;8977;50.902;4.314;2023-02-21T02:20:51;13.80;;;11.73;;
17714;SDS011;8977;50.902;4.314;2023-02-21T02:26:59;14.17;;;10.40;;
17714;SDS011;8977;50.902;4.314;2023-02-21T02:30:14;13.00;;;10.20;;
17714;SDS011;8977;50.902;4.314;2023-02-21T02:36:09;16.13;;;11.17;;
17714;SDS011;8977;50.902;4.314;2023-02-21T02:38:42;15.73;;;11.17;;
17714;SDS011;8977;50.902;4.314;2023-02-21T02:41:15;14.17;;;11.07;;
17714;SDS011;8977;50.902;4.314;2023-02-21T02:43:46;14.40;;;10.83;;
17714;SDS011;8977;50.902;4.314;2023-02-21T02:46:18;16.73;;;11.87;;
17714;SDS011;8977;50.902;4.314;2023-02-21T02:48:51;14.37;;;10.87;;
17714;SDS011;8977;50.902;4.314;2023-02-21T02:51:26;16.03;;;11.17;;
17714;SDS011;8977;50.902;4.314;2023-02-21T02:53:55;15.43;;;11.20;;
17714;SDS011;8977;50.902;4.314;2023-02-21T02:56:22;14.77;;;10.43;;
17714;SDS011;8977;50.902;4.314;2023-02-21T02:58:52;13.57;;;10.17;;
17714;SDS011;8977;50.902;4.314;2023-02-21T03:01:30;14.13;;;10.87;;
17714;SDS011;8977;50.902;4.314;2023-02-21T03:04:15;14.73;;;10.97;;
17714;SDS011;8977;50.902;4.314;2023-02-21T03:07:00;15.43;;;11.50;;
17714;SDS011;8977;50.902;4.314;2023-02-21T03:09:36;16.27;;;12.13;;
17714;SDS011;8977;50.902;4.314;2023-02-21T03:12:12;16.07;;;11.47;;
17714;SDS011;8977;50.902;4.314;2023-02-21T03:14:49;13.70;;;10.60;;
17714;SDS011;8977;50.902;4.314;2023-02-21T03:17:19;16.00;;;11.27;;
17714;SDS011;8977;50.902;4.314;2023-02-21T03:19:51;15.80;;;11.57;;
17714;SDS011;8977;50.902;4.314;2023-02-21T03:22:22;15.87;;;11.80;;
17714;SDS011;8977;50.902;4.314;2023-02-21T03:24:51;15.13;;;11.77;;
17714;SDS011;8977;50.902;4.314;2023-02-21T03:27:20;15.40;;;12.00;;
17714;SDS011;8977;50.902;4.314;2023-02-21T03:29:48;17.03;;;12.80;;
17714;SDS011;8977;50.902;4.314;2023-02-21T03:32:17;17.43;;;11.87;;
17714;SDS011;8977;50.902;4.314;2023-02-21T03:34:49;16.37;;;12.20;;
17714;SDS011;8977;50.902;4.314;2023-02-21T03:37:20;17.43;;;12.30;;
17714;SDS011;8977;50.902;4.314;2023-02-21T03:39:55;18.47;;;12.90;;
17714;SDS011;8977;50.902;4.314;2023-02-21T03:42:22;17.17;;;11.93;;
17714;SDS011;8977;50.902;4.314;2023-02-21T03:44:49;16.97;;;12.23;;
17714;SDS011;8977;50.902;4.314;2023-02-21T03:47:16;16.43;;;12.00;;
17714;SDS011;8977;50.902;4.314;2023-02-21T03:49:43;16.40;;;11.40;;
17714;SDS011;8977;50.902;4.314;2023-02-21T03:52:10;16.37;;;11.83;;
17714;SDS011;8977;50.902;4.314;2023-02-21T03:54:39;16.87;;;11.23;;
17714;SDS011;8977;50.902;4.314;2023-02-21T03:57:06;16.83;;;11.60;;
17714;SDS011;8977;50.902;4.314;2023-02-21T03:59:33;16.57;;;11.37;;
17714;SDS011;8977;50.902;4.314;2023-02-21T04:02:00;15.33;;;10.77;;
17714;SDS011;8977;50.902;4.314;2023-02-21T04:04:27;16.77;;;11.47;;
17714;SDS011;8977;50.902;4.314;2023-02-21T04:06:54;18.00;;;12.10;;
17714;SDS011;8977;50.902;4.314;2023-02-21T04:09:21;16.20;;;11.33;;
17714;SDS011;8977;50.902;4.314;2023-02-21T04:11:51;20.30;;;11.07;;
17714;SDS011;8977;50.902;4.314;2023-02-21T04:14:20;15.83;;;10.97;;
17714;SDS011;8977;50.902;4.314;2023-02-21T04:16:46;16.50;;;11.13;;
17714;SDS011;8977;50.902;4.314;2023-02-21T04:19:13;14.77;;;10.60;;
17714;SDS011;8977;50.902;4.314;2023-02-21T04:21:40;16.43;;;11.00;;
17714;SDS011;8977;50.902;4.314;2023-02-21T04:24:07;16.30;;;10.77;;
17714;SDS011;8977;50.902;4.314;2023-02-21T04:26:34;16.37;;;10.93;;
17714;SDS011;8977;50.902;4.314;2023-02-21T04:29:03;16.53;;;11.17;;
17714;SDS011;8977;50.902;4.314;2023-02-21T04:31:31;18.07;;;11.50;;
17714;SDS011;8977;50.902;4.314;2023-02-21T04:33:58;16.97;;;11.30;;
17714;SDS011;8977;50.902;4.314;2023-02-21T04:36:25;15.73;;;10.40;;
17714;SDS011;8977;50.902;4.314;2023-02-21T04:38:53;15.83;;;10.83;;
17714;SDS011;8977;50.902;4.314;2023-02-21T04:41:20;16.07;;;11.13;;
17714;SDS011;8977;50.902;4.314;2023-02-21T04:43:47;17.60;;;11.23;;
17714;SDS011;8977;50.902;4.314;2023-02-21T04:46:16;16.43;;;10.50;;
17714;SDS011;8977;50.902;4.314;2023-02-21T04:48:44;16.07;;;10.50;;
17714;SDS011;8977;50.902;4.314;2023-02-21T04:51:16;17.70;;;10.67;;
17714;SDS011;8977;50.902;4.314;2023-02-21T04:53:45;14.63;;;10.37;;
17714;SDS011;8977;50.902;4.314;2023-02-21T04:56:13;14.50;;;9.30;;
17714;SDS011;8977;50.902;4.314;2023-02-21T04:58:40;14.90;;;10.07;;
17714;SDS011;8977;50.902;4.314;2023-02-21T05:01:09;15.67;;;10.10;;
17714;SDS011;8977;50.902;4.314;2023-02-21T05:03:38;16.23;;;9.93;;
17714;SDS011;8977;50.902;4.314;2023-02-21T05:06:05;15.63;;;10.07;;
17714;SDS011;8977;50.902;4.314;2023-02-21T05:08:32;15.07;;;10.10;;
17714;SDS011;8977;50.902;4.314;2023-02-21T05:11:00;15.63;;;10.70;;
17714;SDS011;8977;50.902;4.314;2023-02-21T05:13:28;16.03;;;10.43;;
17714;SDS011;8977;50.902;4.314;2023-02-21T05:15:55;14.93;;;9.83;;
17714;SDS011;8977;50.902;4.314;2023-02-21T05:18:22;14.90;;;9.90;;
17714;SDS011;8977;50.902;4.314;2023-02-21T05:20:53;15.40;;;9.70;;
17714;SDS011;8977;50.902;4.314;2023-02-21T05:23:24;14.87;;;9.23;;
17714;SDS011;8977;50.902;4.314;2023-02-21T05:25:59;17.23;;;10.13;;
17714;SDS011;8977;50.902;4.314;2023-02-21T05:28:26;16.40;;;10.97;;
17714;SDS011;8977;50.902;4.314;2023-02-21T05:30:54;15.63;;;10.23;;
17714;SDS011;8977;50.902;4.314;2023-02-21T05:33:21;14.70;;;9.77;;
17714;SDS011;8977;50.902;4.314;2023-02-21T05:35:48;16.60;;;10.33;;
17714;SDS011;8977;50.902;4.314;2023-02-21T05:38:17;17.20;;;10.53;;
17714;SDS011;8977;50.902;4.314;2023-02-21T05:40:45;16.70;;;10.47;;
17714;SDS011;8977;50.902;4.314;2023-02-21T05:43:12;15.30;;;9.60;;
17714;SDS011;8977;50.902;4.314;2023-02-21T05:45:39;17.20;;;10.53;;
17714;SDS011;8977;50.902;4.314;2023-02-21T05:48:06;15.20;;;10.53;;
17714;SDS011;8977;50.902;4.314;2023-02-21T05:50:33;15.03;;;9.63;;
17714;SDS011;8977;50.902;4.314;2023-02-21T05:53:00;14.60;;;9.67;;
17714;SDS011;8977;50.902;4.314;2023-02-21T05:55:28;14.63;;;9.77;;
17714;SDS011;8977;50.902;4.314;2023-02-21T05:57:56;14.53;;;8.93;;
17714;SDS011;8977;50.902;4.314;2023-02-21T06:00:24;12.17;;;8.40;;
17714;SDS011;8977;50.902;4.314;2023-02-21T06:02:52;15.07;;;9.33;;
17714;SDS011;8977;50.902;4.314;2023-02-21T06:05:19;16.73;;;9.93;;
17714;SDS011;8977;50.902;4.314;2023-02-21T06:07:47;15.17;;;9.57;;
17714;SDS011;8977;50.902;4.314;2023-02-21T06:10:15;16.27;;;9.83;;
17714;SDS011;8977;50.902;4.314;2023-02-21T06:12:44;13.80;;;8.60;;
17714;SDS011;8977;50.902;4.314;2023-02-21T06:15:14;14.37;;;8.97;;
17714;SDS011;8977;50.902;4.314;2023-02-21T06:17:41;15.77;;;9.30;;
17714;SDS011;8977;50.902;4.314;2023-02-21T06:20:10;14.93;;;8.87;;
17714;SDS011;8977;50.902;4.314;2023-02-21T06:22:40;11.83;;;8.00;;
17714;SDS011;8977;50.902;4.314;2023-02-21T06:25:07;11.53;;;7.80;;
17714;SDS011;8977;50.902;4.314;2023-02-21T06:27:38;12.00;;;7.70;;
17714;SDS011;8977;50.902;4.314;2023-02-21T06:30:06;12.60;;;8.50;;
17714;SDS011;8977;50.902;4.314;2023-02-21T06:32:34;12.87;;;8.00;;
17714;SDS011;8977;50.902;4.314;2023-02-21T06:35:01;13.70;;;7.53;;
17714;SDS011;8977;50.902;4.314;2023-02-21T06:37:28;15.17;;;8.37;;
17714;SDS011;8977;50.902;4.314;2023-02-21T06:39:56;13.90;;;7.97;;
17714;SDS011;8977;50.902;4.314;2023-02-21T06:42:23;11.87;;;7.37;;
17714;SDS011;8977;50.902;4.314;2023-02-21T06:44:50;12.23;;;7.27;;
17714;SDS011;8977;50.902;4.314;2023-02-21T06:47:18;11.40;;;7.30;;
17714;SDS011;8977;50.902;4.314;2023-02-21T06:49:45;11.23;;;7.87;;
17714;SDS011;8977;50.902;4.314;2023-02-21T06:52:12;11.87;;;8.03;;
17714;SDS011;8977;50.902;4.314;2023-02-21T06:54:39;15.83;;;8.60;;
17714;SDS011;8977;50.902;4.314;2023-02-21T06:57:06;14.50;;;8.77;;
17714;SDS011;8977;50.902;4.314;2023-02-21T06:59:33;18.40;;;9.70;;
17714;SDS011;8977;50.902;4.314;2023-02-21T07:02:00;18.70;;;10.60;;
17714;SDS011;8977;50.902;4.314;2023-02-21T07:04:30;19.73;;;10.20;;
17714;SDS011;8977;50.902;4.314;2023-02-21T07:06:56;19.50;;;9.97;;
17714;SDS011;8977;50.902;4.314;2023-02-21T07:09:23;21.93;;;11.67;;
17714;SDS011;8977;50.902;4.314;2023-02-21T07:11:50;22.73;;;11.50;;
17714;SDS011;8977;50.902;4.314;2023-02-21T07:14:17;21.17;;;11.30;;
17714;SDS011;8977;50.902;4.314;2023-02-21T07:16:44;17.73;;;10.00;;
17714;SDS011;8977;50.902;4.314;2023-02-21T07:19:11;19.23;;;10.07;;
17714;SDS011;8977;50.902;4.314;2023-02-21T07:21:42;17.00;;;8.93;;
17714;SDS011;8977;50.902;4.314;2023-02-21T07:24:09;13.03;;;7.13;;
17714;SDS011;8977;50.902;4.314;2023-02-21T07:26:35;18.70;;;10.13;;
17714;SDS011;8977;50.902;4.314;2023-02-21T07:29:03;19.97;;;9.57;;
17714;SDS011;8977;50.902;4.314;2023-02-21T07:31:31;18.57;;;9.80;;
17714;SDS011;8977;50.902;4.314;2023-02-21T07:33:58;20.40;;;10.30;;
17714;SDS011;8977;50.902;4.314;2023-02-21T07:36:25;21.83;;;10.57;;
17714;SDS011;8977;50.902;4.314;2023-02-21T07:38:54;21.67;;;11.00;;
17714;SDS011;8977;50.902;4.314;2023-02-21T07:41:20;23.07;;;11.10;;
17714;SDS011;8977;50.902;4.314;2023-02-21T07:43:47;25.73;;;12.07;;
17714;SDS011;8977;50.902;4.314;2023-02-21T07:46:15;25.70;;;12.73;;
17714;SDS011;8977;50.902;4.314;2023-02-21T07:48:43;28.57;;;13.37;;
17714;SDS011;8977;50.902;4.314;2023-02-21T07:51:10;27.00;;;13.10;;
17714;SDS011;8977;50.902;4.314;2023-02-21T07:53:37;30.83;;;14.17;;
17714;SDS011;8977;50.902;4.314;2023-02-21T07:56:05;27.80;;;14.40;;
17714;SDS011;8977;50.902;4.314;2023-02-21T07:58:32;29.30;;;14.67;;
17714;SDS011;8977;50.902;4.314;2023-02-21T08:01:01;33.30;;;17.23;;
17714;SDS011;8977;50.902;4.314;2023-02-21T08:03:28;34.63;;;16.63;;
17714;SDS011;8977;50.902;4.314;2023-02-21T08:05:56;30.53;;;14.97;;
17714;SDS011;8977;50.902;4.314;2023-02-21T08:08:23;26.53;;;14.13;;
17714;SDS011;8977;50.902;4.314;2023-02-21T08:10:50;24.87;;;13.37;;
17714;SDS011;8977;50.902;4.314;2023-02-21T08:13:18;23.63;;;12.57;;
17714;SDS011;8977;50.902;4.314;2023-02-21T08:15:45;18.93;;;11.63;;
17714;SDS011;8977;50.902;4.314;2023-02-21T08:18:16;20.30;;;12.83;;
17714;SDS011;8977;50.902;4.314;2023-02-21T08:20:44;23.33;;;12.87;;
17714;SDS011;8977;50.902;4.314;2023-02-21T08:23:12;20.77;;;11.77;;
17714;SDS011;8977;50.902;4.314;2023-02-21T08:25:39;21.83;;;12.53;;
17714;SDS011;8977;50.902;4.314;2023-02-21T08:28:06;17.17;;;10.57;;
17714;SDS011;8977;50.902;4.314;2023-02-21T08:30:34;16.93;;;10.37;;
17714;SDS011;8977;50.902;4.314;2023-02-21T08:33:01;14.17;;;9.10;;
17714;SDS011;8977;50.902;4.314;2023-02-21T08:35:29;15.10;;;9.60;;
17714;SDS011;8977;50.902;4.314;2023-02-21T08:37:55;12.53;;;7.97;;
17714;SDS011;8977;50.902;4.314;2023-02-21T08:40:27;13.53;;;9.30;;
17714;SDS011;8977;50.902;4.314;2023-02-21T08:42:55;15.90;;;10.23;;
17714;SDS011;8977;50.902;4.314;2023-02-21T08:45:24;13.87;;;9.17;;
17714;SDS011;8977;50.902;4.314;2023-02-21T08:47:53;12.53;;;8.93;;
17714;SDS011;8977;50.902;4.314;2023-02-21T08:50:22;12.17;;;8.23;;
17714;SDS011;8977;50.902;4.314;2023-02-21T08:52:51;13.40;;;8.63;;
17714;SDS011;8977;50.902;4.314;2023-02-21T08:55:18;13.53;;;8.77;;
17714;SDS011;8977;50.902;4.314;2023-02-21T08:57:47;12.47;;;7.97;;
17714;SDS011;8977;50.902;4.314;2023-02-21T09:00:16;11.83;;;7.73;;
17714;SDS011;8977;50.902;4.314;2023-02-21T09:02:47;13.03;;;8.23;;
17714;SDS011;8977;50.902;4.314;2023-02-21T09:05:17;13.53;;;9.07;;
17714;SDS011;8977;50.902;4.314;2023-02-21T09:07:46;13.50;;;8.93;;
17714;SDS011;8977;50.902;4.314;2023-02-21T09:10:14;15.63;;;9.50;;
17714;SDS011;8977;50.902;4.314;2023-02-21T09:12:41;16.33;;;9.57;;
17714;SDS011;8977;50.902;4.314;2023-02-21T09:15:08;14.83;;;9.60;;
17714;SDS011;8977;50.902;4.314;2023-02-21T09:17:35;14.90;;;9.70;;
17714;SDS011;8977;50.902;4.314;2023-02-21T09:20:04;12.53;;;8.10;;
17714;SDS011;8977;50.902;4.314;2023-02-21T09:22:34;15.43;;;8.90;;
17714;SDS011;8977;50.902;4.314;2023-02-21T09:25:01;13.93;;;9.00;;
17714;SDS011;8977;50.902;4.314;2023-02-21T09:27:28;15.40;;;9.47;;
17714;SDS011;8977;50.902;4.314;2023-02-21T09:30:02;16.37;;;10.70;;
17714;SDS011;8977;50.902;4.314;2023-02-21T09:32:31;15.57;;;10.00;;
17714;SDS011;8977;50.902;4.314;2023-02-21T09:34:57;17.67;;;9.60;;
17714;SDS011;8977;50.902;4.314;2023-02-21T09:37:25;16.00;;;9.77;;
17714;SDS011;8977;50.902;4.314;2023-02-21T09:39:55;16.37;;;9.67;;
17714;SDS011;8977;50.902;4.314;2023-02-21T09:42:23;16.37;;;10.13;;
17714;SDS011;8977;50.902;4.314;2023-02-21T09:44:54;18.47;;;10.27;;
17714;SDS011;8977;50.902;4.314;2023-02-21T09:47:23;17.03;;;10.23;;
17714;SDS011;8977;50.902;4.314;2023-02-21T09:49:57;17.47;;;10.07;;
17714;SDS011;8977;50.902;4.314;2023-02-21T09:52:29;20.33;;;11.07;;
17714;SDS011;8977;50.902;4.314;2023-02-21T09:55:01;25.13;;;12.07;;
17714;SDS011;8977;50.902;4.314;2023-02-21T09:57:33;22.43;;;11.13;;
17714;SDS011;8977;50.902;4.314;2023-02-21T10:00:01;22.27;;;12.43;;
17714;SDS011;8977;50.902;4.314;2023-02-21T10:02:45;22.30;;;11.80;;
17714;SDS011;8977;50.902;4.314;2023-02-21T10:05:20;20.83;;;11.73;;
17714;SDS011;8977;50.902;4.314;2023-02-21T10:07:58;23.77;;;12.60;;
17714;SDS011;8977;50.902;4.314;2023-02-21T10:10:33;22.33;;;12.13;;
17714;SDS011;8977;50.902;4.314;2023-02-21T10:13:10;20.97;;;12.00;;
17714;SDS011;8977;50.902;4.314;2023-02-21T10:15:47;21.73;;;12.53;;
17714;SDS011;8977;50.902;4.314;2023-02-21T10:18:22;21.87;;;11.87;;
17714;SDS011;8977;50.902;4.314;2023-02-21T10:20:55;20.23;;;11.87;;
17714;SDS011;8977;50.902;4.314;2023-02-21T10:23:30;24.70;;;12.17;;
17714;SDS011;8977;50.902;4.314;2023-02-21T10:26:03;25.90;;;13.07;;
17714;SDS011;8977;50.902;4.314;2023-02-21T10:28:33;21.97;;;12.70;;
17714;SDS011;8977;50.902;4.314;2023-02-21T10:31:02;26.33;;;12.23;;
17714;SDS011;8977;50.902;4.314;2023-02-21T10:33:32;21.47;;;13.10;;
17714;SDS011;8977;50.902;4.314;2023-02-21T10:36:08;28.27;;;14.10;;
17714;SDS011;8977;50.902;4.314;2023-02-21T10:38:36;22.87;;;12.73;;
17714;SDS011;8977;50.902;4.314;2023-02-21T10:41:07;23.27;;;12.20;;
17714;SDS011;8977;50.902;4.314;2023-02-21T10:43:35;24.33;;;10.97;;
17714;SDS011;8977;50.902;4.314;2023-02-21T10:46:07;20.17;;;11.20;;
17714;SDS011;8977;50.902;4.314;2023-02-21T10:48:41;15.67;;;9.93;;
17714;SDS011;8977;50.902;4.314;2023-02-21T10:51:10;16.97;;;9.97;;
17714;SDS011;8977;50.902;4.314;2023-02-21T10:53:38;18.20;;;10.40;;
17714;SDS011;8977;50.902;4.314;2023-02-21T10:56:09;14.80;;;9.33;;
17714;SDS011;8977;50.902;4.314;2023-02-21T10:58:47;15.80;;;8.73;;
17714;SDS011;8977;50.902;4.314;2023-02-21T11:01:17;14.27;;;8.87;;
17714;SDS011;8977;50.902;4.314;2023-02-21T11:03:46;15.47;;;9.60;;
17714;SDS011;8977;50.902;4.314;2023-02-21T11:06:20;13.83;;;8.23;;
17714;SDS011;8977;50.902;4.314;2023-02-21T11:08:51;15.83;;;9.87;;
17714;SDS011;8977;50.902;4.314;2023-02-21T11:11:31;13.00;;;8.37;;
17714;SDS011;8977;50.902;4.314;2023-02-21T11:19:45;12.80;;;8.47;;
17714;SDS011;8977;50.902;4.314;2023-02-21T11:22:14;12.73;;;8.47;;
17714;SDS011;8977;50.902;4.314;2023-02-21T11:24:43;13.43;;;8.50;;
17714;SDS011;8977;50.902;4.314;2023-02-21T11:27:34;13.70;;;8.47;;
17714;SDS011;8977;50.902;4.314;2023-02-21T11:30:03;11.97;;;7.87;;
17714;SDS011;8977;50.902;4.314;2023-02-21T11:32:39;10.23;;;7.63;;
17714;SDS011;8977;50.902;4.314;2023-02-21T11:35:20;13.07;;;8.27;;
17714;SDS011;8977;50.902;4.314;2023-02-21T11:37:52;11.63;;;8.47;;
17714;SDS011;8977;50.902;4.314;2023-02-21T11:40:30;12.70;;;8.80;;
17714;SDS011;8977;50.902;4.314;2023-02-21T11:43:19;12.93;;;8.70;;
17714;SDS011;8977;50.902;4.314;2023-02-21T11:46:04;13.07;;;8.67;;
17714;SDS011;8977;50.902;4.314;2023-02-21T11:48:41;13.57;;;8.97;;
17714;SDS011;8977;50.902;4.314;2023-02-21T11:51:16;11.83;;;8.40;;
17714;SDS011;8977;50.902;4.314;2023-02-21T11:53:52;10.53;;;7.37;;
17714;SDS011;8977;50.902;4.314;2023-02-21T11:56:23;10.00;;;6.80;;
17714;SDS011;8977;50.902;4.314;2023-02-21T11:59:05;7.93;;;5.90;;
17714;SDS011;8977;50.902;4.314;2023-02-21T12:01:43;9.40;;;6.33;;
17714;SDS011;8977;50.902;4.314;2023-02-21T12:04:26;9.77;;;6.57;;
17714;SDS011;8977;50.902;4.314;2023-02-21T12:07:07;11.43;;;6.77;;
17714;SDS011;8977;50.902;4.314;2023-02-21T12:09:43;9.07;;;6.63;;
17714;SDS011;8977;50.902;4.314;2023-02-21T12:12:21;9.57;;;6.43;;
17714;SDS011;8977;50.902;4.314;2023-02-21T12:15:01;9.33;;;6.63;;
17714;SDS011;8977;50.902;4.314;2023-02-21T12:17:45;9.10;;;6.70;;
17714;SDS011;8977;50.902;4.314;2023-02-21T12:23:25;8.27;;;5.37;;
17714;SDS011;8977;50.902;4.314;2023-02-21T12:26:16;8.20;;;6.17;;
17714;SDS011;8977;50.902;4.314;2023-02-21T12:29:00;8.67;;;6.30;;
17714;SDS011;8977;50.902;4.314;2023-02-21T12:31:39;12.57;;;7.07;;
17714;SDS011;8977;50.902;4.314;2023-02-21T12:34:21;12.47;;;6.40;;
17714;SDS011;8977;50.902;4.314;2023-02-21T12:37:04;10.50;;;6.77;;
17714;SDS011;8977;50.902;4.314;2023-02-21T12:39:51;10.47;;;7.30;;
17714;SDS011;8977;50.902;4.314;2023-02-21T12:42:33;9.27;;;7.37;;
17714;SDS011;8977;50.902;4.314;2023-02-21T12:45:22;11.30;;;7.57;;
17714;SDS011;8977;50.902;4.314;2023-02-21T12:48:03;9.77;;;6.73;;
17714;SDS011;8977;50.902;4.314;2023-02-21T12:50:37;10.83;;;8.10;;
17714;SDS011;8977;50.902;4.314;2023-02-21T12:53:09;12.37;;;8.27;;
17714;SDS011;8977;50.902;4.314;2023-02-21T12:55:41;11.70;;;7.53;;
17714;SDS011;8977;50.902;4.314;2023-02-21T12:58:13;12.00;;;8.13;;
17714;SDS011;8977;50.902;4.314;2023-02-21T13:00:44;13.23;;;8.43;;
17714;SDS011;8977;50.902;4.314;2023-02-21T13:03:24;13.57;;;8.40;;
17714;SDS011;8977;50.902;4.314;2023-02-21T13:06:04;13.60;;;8.83;;
17714;SDS011;8977;50.902;4.314;2023-02-21T13:08:39;12.33;;;8.67;;
17714;SDS011;8977;50.902;4.314;2023-02-21T13:11:13;12.37;;;8.53;;
17714;SDS011;8977;50.902;4.314;2023-02-21T13:13:46;13.53;;;9.07;;
17714;SDS011;8977;50.902;4.314;2023-02-21T13:16:13;11.60;;;8.80;;
17714;SDS011;8977;50.902;4.314;2023-02-21T13:18:45;12.63;;;9.00;;
17714;SDS011;8977;50.902;4.314;2023-02-21T13:21:18;13.57;;;9.10;;
17714;SDS011;8977;50.902;4.314;2023-02-21T13:26:56;14.37;;;8.70;;
17714;SDS011;8977;50.902;4.314;2023-02-21T13:29:42;13.83;;;9.00;;
17714;SDS011;8977;50.902;4.314;2023-02-21T13:32:11;15.00;;;9.13;;
17714;SDS011;8977;50.902;4.314;2023-02-21T13:34:45;14.43;;;10.20;;
17714;SDS011;8977;50.902;4.314;2023-02-21T13:37:18;14.73;;;9.30;;
17714;SDS011;8977;50.902;4.314;2023-02-21T13:39:48;12.63;;;8.83;;
17714;SDS011;8977;50.902;4.314;2023-02-21T13:42:18;17.03;;;11.03;;
17714;SDS011;8977;50.902;4.314;2023-02-21T13:44:48;13.43;;;9.57;;
17714;SDS011;8977;50.902;4.314;2023-02-21T13:47:17;15.73;;;10.30;;
17714;SDS011;8977;50.902;4.314;2023-02-21T13:49:47;16.27;;;10.97;;
17714;SDS011;8977;50.902;4.314;2023-02-21T13:55:37;17.23;;;10.63;;
17714;SDS011;8977;50.902;4.314;2023-02-21T14:01:18;18.00;;;11.83;;
17714;SDS011;8977;50.902;4.314;2023-02-21T14:04:00;17.50;;;11.40;;
17714;SDS011;8977;50.902;4.314;2023-02-21T14:07:07;17.03;;;11.40;;
17714;SDS011;8977;50.902;4.314;2023-02-21T14:09:34;17.97;;;12.20;;
17714;SDS011;8977;50.902;4.314;2023-02-21T14:12:03;18.47;;;12.33;;
17714;SDS011;8977;50.902;4.314;2023-02-21T14:14:33;18.60;;;12.70;;
17714;SDS011;8977;50.902;4.314;2023-02-21T14:17:04;17.60;;;12.20;;
17714;SDS011;8977;50.902;4.314;2023-02-21T14:19:34;19.27;;;12.43;;
17714;SDS011;8977;50.902;4.314;2023-02-21T14:22:10;20.23;;;13.10;;
17714;SDS011;8977;50.902;4.314;2023-02-21T14:24:41;22.03;;;14.00;;
17714;SDS011;8977;50.902;4.314;2023-02-21T14:35:50;20.70;;;13.23;;
17714;SDS011;8977;50.902;4.314;2023-02-21T14:38:36;22.50;;;14.60;;
17714;SDS011;8977;50.902;4.314;2023-02-21T14:41:10;18.50;;;13.53;;
17714;SDS011;8977;50.902;4.314;2023-02-21T14:43:59;22.33;;;14.23;;
17714;SDS011;8977;50.902;4.314;2023-02-21T14:53:11;18.07;;;12.23;;
17714;SDS011;8977;50.902;4.314;2023-02-21T14:56:28;16.80;;;11.70;;
17714;SDS011;8977;50.902;4.314;2023-02-21T15:02:22;18.33;;;12.00;;
17714;SDS011;8977;50.902;4.314;2023-02-21T15:04:56;17.17;;;11.80;;
17714;SDS011;8977;50.902;4.314;2023-02-21T15:07:31;18.33;;;11.77;;
17714;SDS011;8977;50.902;4.314;2023-02-21T15:10:16;19.67;;;12.37;;
17714;SDS011;8977;50.902;4.314;2023-02-21T15:12:47;17.67;;;11.60;;
17714;SDS011;8977;50.902;4.314;2023-02-21T15:15:17;16.50;;;11.87;;
17714;SDS011;8977;50.902;4.314;2023-02-21T15:17:58;17.97;;;12.60;;
17714;SDS011;8977;50.902;4.314;2023-02-21T15:20:31;21.23;;;12.97;;
17714;SDS011;8977;50.902;4.314;2023-02-21T15:22:59;19.33;;;13.63;;
17714;SDS011;8977;50.902;4.314;2023-02-21T15:25:32;18.03;;;12.47;;
17714;SDS011;8977;50.902;4.314;2023-02-21T15:28:01;19.70;;;12.93;;
17714;SDS011;8977;50.902;4.314;2023-02-21T15:30:32;20.40;;;13.07;;
17714;SDS011;8977;50.902;4.314;2023-02-21T15:33:04;18.23;;;13.20;;
17714;SDS011;8977;50.902;4.314;2023-02-21T15:35:42;18.87;;;12.87;;
17714;SDS011;8977;50.902;4.314;2023-02-21T15:38:15;17.90;;;12.80;;
17714;SDS011;8977;50.902;4.314;2023-02-21T15:40:45;17.27;;;11.93;;
17714;SDS011;8977;50.902;4.314;2023-02-21T15:43:22;19.47;;;12.57;;
17714;SDS011;8977;50.902;4.314;2023-02-21T15:45:54;19.13;;;12.07;;
17714;SDS011;8977;50.902;4.314;2023-02-21T15:48:24;18.80;;;11.70;;
17714;SDS011;8977;50.902;4.314;2023-02-21T15:50:52;18.53;;;12.57;;
17714;SDS011;8977;50.902;4.314;2023-02-21T15:53:20;20.20;;;12.40;;
17714;SDS011;8977;50.902;4.314;2023-02-21T15:55:49;18.17;;;12.57;;
17714;SDS011;8977;50.902;4.314;2023-02-21T15:58:19;18.20;;;12.63;;
17714;SDS011;8977;50.902;4.314;2023-02-21T16:00:51;20.00;;;13.97;;
17714;SDS011;8977;50.902;4.314;2023-02-21T16:03:35;17.70;;;13.03;;
17714;SDS011;8977;50.902;4.314;2023-02-21T16:06:21;20.87;;;13.27;;